Time;durP1;ratioP1;P1;durP2;ratioP2;P2;SDS_P1;SDS_P2;PMS_P1;PMS_P2;Temp;Humidity;BMP_temperature;BMP_pressure;BME280_temperature;BME280_humidity;BME280_pressure;Samples;Min_cycle;Max_cycle;Signal;HPM_P1;HPM_P2
2022/04/02 00:01:27;;;;;;;;;;;0.20;99.90;;;;;;5044017;28;19927;-70
2022/04/02 00:03:54;;;;;;;;;;;0.20;99.90;;;;;;5044846;28;19929;-70
2022/04/02 00:06:20;;;;;;;;;;;0.10;99.90;;;;;;5044541;28;20134;-70
2022/04/02 00:08:47;;;;;;;;;;;0.20;99.90;;;;;;5044571;28;19928;-70
2022/04/02 00:11:15;;;;;;;;;;;0.10;99.90;;;;;;5043947;28;19921;-70
2022/04/02 00:13:41;;;;;;;;;;;0.20;99.90;;;;;;5044232;28;19921;-70
2022/04/02 00:16:08;;;;;;;;;;;0.10;99.90;;;;;;5044016;28;20204;-70
2022/04/02 00:18:35;;;;;;;;;;;0.10;99.90;;;;;;5043967;28;19967;-70
2022/04/02 00:21:02;;;;;;;;;;;0.10;99.90;;;;;;5044257;28;19921;-71
2022/04/02 00:23:39;;;;;;;;;;;0.10;99.90;;;;;;5044147;28;20229;-70
2022/04/02 00:26:06;;;;;;;;;;;0.10;99.90;;;;;;5043420;28;19928;-70
2022/04/02 00:28:36;;;;;;;;;;;0.00;99.90;;;;;;5044149;28;19925;-70
2022/04/02 00:31:02;;;;;;;;;;;0.00;99.90;;;;;;5044351;28;19967;-70
2022/04/02 00:33:29;;;;;;;;;;;0.00;99.90;;;;;;5043661;28;20090;-70
2022/04/02 00:35:56;;;;;;;;;;;0.00;99.90;;;;;;5042373;28;19928;-70
2022/04/02 00:38:22;;;;;;;;;;;0.00;99.90;;;;;;5043985;28;19921;-70
2022/04/02 00:40:49;;;;;;;;;;;0.00;99.90;;;;;;5043548;28;19921;-70
2022/04/02 00:43:22;;;;;;;;;;;-0.10;99.90;;;;;;5041979;28;20201;-70
2022/04/02 00:45:50;;;;;;;;;;;-0.10;99.90;;;;;;5043860;28;19921;-70
2022/04/02 00:48:17;;;;;;;;;;;-0.10;99.90;;;;;;5043880;28;19929;-70
2022/04/02 00:50:45;;;;;;;;;;;-0.10;99.90;;;;;;5044050;28;19924;-70
2022/04/02 00:55:40;;;;;;;;;;;-0.10;99.90;;;;;;5019330;28;19960;-70
2022/04/02 00:58:07;;;;;;;;;;;-0.10;99.90;;;;;;5021001;28;19921;-70
2022/04/02 01:00:34;;;;;;;;;;;-0.10;99.90;;;;;;5023759;28;19925;-71
2022/04/02 01:03:02;;;;;;;;;;;-0.10;99.90;;;;;;5023309;28;19926;-70
2022/04/02 01:05:28;;;;;;;;;;;-0.20;99.90;;;;;;5023510;28;19921;-70
2022/04/02 01:07:55;;;;;;;;;;;-0.20;99.90;;;;;;5018355;28;19929;-70
2022/04/02 01:10:23;;;;;;;;;;;-0.10;99.90;;;;;;5012114;28;19921;-70
2022/04/02 01:12:49;;;;;;;;;;;-0.20;99.90;;;;;;5023673;28;19936;-70
2022/04/02 01:15:16;;;;;;;;;;;-0.20;99.90;;;;;;5023380;28;20115;-70
2022/04/02 01:17:43;;;;;;;;;;;-0.20;99.90;;;;;;5024098;28;19921;-70
2022/04/02 01:20:12;;;;;;;;;;;-0.20;99.90;;;;;;5023700;28;19943;-70
2022/04/02 01:22:40;;;;;;;;;;;-0.10;99.90;;;;;;5022865;28;19921;-70
2022/04/02 01:25:08;;;;;;;;;;;-0.20;99.90;;;;;;5023500;28;19928;-70
2022/04/02 01:27:35;;;;;;;;;;;-0.10;99.90;;;;;;5023607;28;19925;-70
2022/04/02 01:30:02;;;;;;;;;;;-0.20;99.90;;;;;;5023280;28;19922;-70
2022/04/02 01:32:28;;;;;;;;;;;-0.20;99.90;;;;;;5023397;28;20140;-70
2022/04/02 01:34:55;;;;;;;;;;;-0.20;99.90;;;;;;5023284;28;19927;-70
2022/04/02 01:37:21;;;;;;;;;;;-0.10;99.90;;;;;;5022532;28;19929;-70
2022/04/02 01:39:49;;;;;;;;;;;-0.20;99.90;;;;;;5023551;28;19922;-70
2022/04/02 01:42:20;;;;;;;;;;;-0.10;99.90;;;;;;5023154;28;19922;-70
2022/04/02 01:44:51;;;;;;;;;;;-0.10;99.90;;;;;;5023462;28;19922;-70
2022/04/02 01:47:17;;;;;;;;;;;-0.10;99.90;;;;;;5022848;28;19944;-70
2022/04/02 01:49:44;;;;;;;;;;;-0.10;99.90;;;;;;5022936;28;19989;-70
2022/04/02 01:52:11;;;;;;;;;;;-0.20;99.90;;;;;;5023367;28;19929;-70
2022/04/02 01:54:38;;;;;;;;;;;-0.20;99.90;;;;;;5023271;28;19928;-70
2022/04/02 01:57:06;;;;;;;;;;;-0.20;99.90;;;;;;5021986;28;19922;-70
2022/04/02 01:59:32;;;;;;;;;;;-0.30;99.90;;;;;;5022084;28;19929;-70
2022/04/02 02:02:00;;;;;;;;;;;-0.20;99.90;;;;;;5022981;28;20204;-70
2022/04/02 02:04:27;;;;;;;;;;;-0.20;99.90;;;;;;5023331;28;20184;-70
2022/04/02 02:06:53;;;;;;;;;;;-0.20;99.90;;;;;;5022877;28;19922;-70
2022/04/02 02:09:20;;;;;;;;;;;-0.20;99.90;;;;;;5023070;28;19943;-70
2022/04/02 02:11:47;;;;;;;;;;;-0.20;99.90;;;;;;5022115;28;19929;-70
2022/04/02 02:14:15;;;;;;;;;;;-0.20;99.90;;;;;;5023037;28;19960;-70
2022/04/02 02:16:41;;;;;;;;;;;-0.20;99.90;;;;;;5022233;28;19921;-70
2022/04/02 02:19:08;;;;;;;;;;;-0.20;99.90;;;;;;5023489;28;19922;-70
2022/04/02 02:21:34;;;;;;;;;;;-0.20;99.90;;;;;;5007351;28;19922;-70
2022/04/02 02:24:01;;;;;;;;;;;-0.20;99.90;;;;;;5022988;28;19927;-70
2022/04/02 02:26:28;;;;;;;;;;;-0.30;99.90;;;;;;5022194;28;19921;-71
2022/04/02 02:28:54;;;;;;;;;;;-0.30;99.90;;;;;;5022982;28;19922;-70
2022/04/02 02:31:22;;;;;;;;;;;-0.30;99.90;;;;;;5021206;28;19932;-70
2022/04/02 02:36:33;;;;;;;;;;;-0.30;99.90;;;;;;5026167;28;20227;-70
2022/04/02 02:39:00;;;;;;;;;;;-0.30;99.90;;;;;;5026622;28;19922;-70
2022/04/02 02:41:26;;;;;;;;;;;-0.30;99.90;;;;;;5026645;28;20112;-70
2022/04/02 02:43:53;;;;;;;;;;;-0.40;99.90;;;;;;5025959;28;19930;-70
2022/04/02 02:46:20;;;;;;;;;;;-0.30;99.90;;;;;;5025755;28;20216;-70
2022/04/02 02:48:48;;;;;;;;;;;-0.30;99.90;;;;;;5024359;28;20101;-70
2022/04/02 02:51:14;;;;;;;;;;;-0.40;99.90;;;;;;5026216;28;19921;-70
2022/04/02 02:53:44;;;;;;;;;;;-0.40;99.90;;;;;;5026357;28;19944;-70
2022/04/02 02:56:10;;;;;;;;;;;-0.40;99.90;;;;;;5025447;28;20167;-70
2022/04/02 02:58:37;;;;;;;;;;;-0.40;99.90;;;;;;5026129;28;19929;-70
2022/04/02 03:01:05;;;;;;;;;;;-0.40;99.90;;;;;;5025847;28;19997;-70
2022/04/02 03:03:31;;;;;;;;;;;-0.40;99.90;;;;;;5026309;28;19932;-70
2022/04/02 03:06:00;;;;;;;;;;;-0.40;99.90;;;;;;5025443;28;19929;-70
2022/04/02 03:08:27;;;;;;;;;;;-0.30;99.90;;;;;;5025898;28;20155;-70
2022/04/02 03:10:54;;;;;;;;;;;-0.30;99.90;;;;;;5025858;28;19921;-70
2022/04/02 03:13:21;;;;;;;;;;;-0.40;99.90;;;;;;5026010;28;19921;-70
2022/04/02 03:15:47;;;;;;;;;;;-0.40;99.90;;;;;;5025542;28;20093;-70
2022/04/02 03:18:14;;;;;;;;;;;-0.40;99.90;;;;;;5025583;28;19921;-70
2022/04/02 03:20:42;;;;;;;;;;;-0.40;99.90;;;;;;5025815;28;19921;-70
2022/04/02 03:23:10;;;;;;;;;;;-0.40;99.90;;;;;;5025633;28;19936;-70
2022/04/02 03:25:37;;;;;;;;;;;-0.40;99.90;;;;;;5025158;28;19929;-70
2022/04/02 03:28:05;;;;;;;;;;;-0.40;99.90;;;;;;5025962;28;19988;-70
2022/04/02 03:30:32;;;;;;;;;;;-0.40;99.90;;;;;;5025329;28;19928;-70
2022/04/02 03:32:58;;;;;;;;;;;-0.40;99.90;;;;;;5025772;28;19921;-70
2022/04/02 03:35:25;;;;;;;;;;;-0.40;99.90;;;;;;5025063;28;19922;-70
2022/04/02 03:37:52;;;;;;;;;;;-0.40;99.90;;;;;;5025434;28;20231;-70
2022/04/02 03:40:21;;;;;;;;;;;-0.40;99.90;;;;;;5025417;28;19932;-70
2022/04/02 03:42:48;;;;;;;;;;;-0.40;99.90;;;;;;5025454;28;19925;-71
2022/04/02 03:45:15;;;;;;;;;;;-0.50;99.90;;;;;;5024093;28;19993;-70
2022/04/02 03:47:42;;;;;;;;;;;-0.40;99.90;;;;;;5025295;28;19992;-70
2022/04/02 03:50:09;;;;;;;;;;;-0.50;99.90;;;;;;5004322;28;19922;-70
2022/04/02 03:52:36;;;;;;;;;;;-0.50;99.90;;;;;;5009859;28;19921;-70
2022/04/02 03:55:04;;;;;;;;;;;-0.50;99.90;;;;;;5024440;28;19928;-70
2022/04/02 03:57:33;;;;;;;;;;;-0.40;99.90;;;;;;5025027;28;19956;-71
2022/04/02 03:59:59;;;;;;;;;;;-0.50;99.90;;;;;;5024982;28;19953;-70
2022/04/02 04:02:26;;;;;;;;;;;-0.40;99.90;;;;;;5025182;28;19925;-70
2022/04/02 04:04:53;;;;;;;;;;;-0.40;99.90;;;;;;5024905;28;19928;-70
2022/04/02 04:07:20;;;;;;;;;;;-0.40;99.90;;;;;;5024446;28;19931;-71
2022/04/02 04:09:46;;;;;;;;;;;-0.40;99.90;;;;;;5024965;28;19968;-71
2022/04/02 04:12:14;;;;;;;;;;;-0.40;99.90;;;;;;5024828;28;19928;-71
2022/04/02 04:14:42;;;;;;;;;;;-0.30;99.90;;;;;;5024743;28;19922;-70
2022/04/02 04:17:09;;;;;;;;;;;-0.30;99.90;;;;;;5024269;28;19925;-70
2022/04/02 04:19:35;;;;;;;;;;;-0.40;99.90;;;;;;5024875;28;19928;-70
2022/04/02 04:22:03;;;;;;;;;;;-0.30;99.90;;;;;;5024237;28;20224;-70
2022/04/02 04:24:30;;;;;;;;;;;-0.40;99.90;;;;;;5024544;28;19921;-70
2022/04/02 04:26:58;;;;;;;;;;;-0.40;99.90;;;;;;5024552;28;20067;-70
2022/04/02 04:29:24;;;;;;;;;;;-0.40;99.90;;;;;;5024728;28;19945;-70
2022/04/02 04:31:52;;;;;;;;;;;-0.40;99.90;;;;;;5024485;28;19935;-70
2022/04/02 04:34:19;;;;;;;;;;;-0.40;99.90;;;;;;5024399;28;19929;-70
2022/04/02 04:36:46;;;;;;;;;;;-0.40;99.90;;;;;;5023981;28;19922;-70
2022/04/02 04:39:12;;;;;;;;;;;-0.40;99.90;;;;;;5024389;28;19961;-70
2022/04/02 04:41:41;;;;;;;;;;;-0.40;99.90;;;;;;5024403;28;19928;-70
2022/04/02 04:44:07;;;;;;;;;;;-0.40;99.90;;;;;;5024027;28;19928;-70
2022/04/02 04:46:34;;;;;;;;;;;-0.40;99.90;;;;;;5023588;28;20151;-70
2022/04/02 04:49:02;;;;;;;;;;;-0.40;99.90;;;;;;5022795;28;19929;-70
2022/04/02 04:51:28;;;;;;;;;;;-0.40;99.90;;;;;;5023909;28;19922;-70
2022/04/02 04:53:55;;;;;;;;;;;-0.40;99.90;;;;;;5023758;28;19921;-70
2022/04/02 04:56:22;;;;;;;;;;;-0.50;99.90;;;;;;5023439;28;19928;-70
2022/04/02 04:58:48;;;;;;;;;;;-0.40;99.90;;;;;;5024030;28;19925;-70
2022/04/02 05:01:15;;;;;;;;;;;-0.50;99.90;;;;;;5023859;28;19928;-70
2022/04/02 05:03:41;;;;;;;;;;;-0.60;99.90;;;;;;5023429;28;19921;-70
2022/04/02 05:06:11;;;;;;;;;;;-0.70;99.90;;;;;;5023064;28;19956;-70
2022/04/02 05:08:38;;;;;;;;;;;-0.70;99.90;;;;;;5023783;28;20208;-70
2022/04/02 05:11:05;;;;;;;;;;;-0.70;99.90;;;;;;5023951;28;19922;-70
2022/04/02 05:13:31;;;;;;;;;;;-0.70;99.90;;;;;;5023675;28;19941;-70
2022/04/02 05:15:58;;;;;;;;;;;-0.70;99.90;;;;;;5021492;28;19951;-70
2022/04/02 05:18:25;;;;;;;;;;;-0.70;99.90;;;;;;5012754;28;19960;-70
2022/04/02 05:20:52;;;;;;;;;;;-0.70;99.90;;;;;;5023617;28;19952;-70
2022/04/02 05:23:20;;;;;;;;;;;-0.70;99.90;;;;;;5023550;28;19922;-70
2022/04/02 05:25:47;;;;;;;;;;;-0.70;99.90;;;;;;5022688;28;19921;-70
2022/04/02 05:28:13;;;;;;;;;;;-0.70;99.90;;;;;;5023713;28;20124;-70
2022/04/02 05:30:40;;;;;;;;;;;-0.70;99.90;;;;;;5023460;28;19945;-70
2022/04/02 05:33:06;;;;;;;;;;;-0.70;99.90;;;;;;5023354;28;19944;-69
2022/04/02 05:35:33;;;;;;;;;;;-0.70;99.90;;;;;;5022770;28;19936;-69
2022/04/02 05:37:59;;;;;;;;;;;-0.70;99.90;;;;;;5023636;28;19928;-71
2022/04/02 05:40:27;;;;;;;;;;;-0.80;99.90;;;;;;5023292;28;19921;-72
2022/04/02 05:42:54;;;;;;;;;;;-0.80;99.90;;;;;;5023254;28;19925;-70
2022/04/02 05:45:21;;;;;;;;;;;-0.80;99.90;;;;;;5023116;28;19936;-70
2022/04/02 05:47:49;;;;;;;;;;;-0.80;99.90;;;;;;5023667;28;19922;-71
2022/04/02 05:50:16;;;;;;;;;;;-0.70;99.90;;;;;;5024013;28;19922;-74
2022/04/02 05:52:43;;;;;;;;;;;-0.70;99.90;;;;;;5023728;28;20254;-70
2022/04/02 05:55:10;;;;;;;;;;;-0.70;99.90;;;;;;5023365;28;19922;-71
2022/04/02 05:57:40;;;;;;;;;;;-0.70;99.90;;;;;;5023629;28;19921;-72
2022/04/02 06:00:07;;;;;;;;;;;-0.70;99.90;;;;;;5007893;28;19922;-72
2022/04/02 06:02:35;;;;;;;;;;;-0.70;99.90;;;;;;5023871;28;19988;-72
2022/04/02 06:05:02;;;;;;;;;;;-0.70;99.90;;;;;;5023291;28;20272;-72
2022/04/02 06:07:28;;;;;;;;;;;-0.60;99.90;;;;;;5023323;28;19944;-73
2022/04/02 06:09:55;;;;;;;;;;;-0.60;99.90;;;;;;5026339;28;19922;-71
2022/04/02 06:12:21;;;;;;;;;;;-0.60;99.90;;;;;;5027388;28;19949;-71
2022/04/02 06:14:49;;;;;;;;;;;-0.60;99.90;;;;;;5027392;28;19921;-72
2022/04/02 06:17:16;;;;;;;;;;;-0.60;99.90;;;;;;5026940;28;19921;-72
2022/04/02 06:19:42;;;;;;;;;;;-0.60;99.90;;;;;;5027626;28;19922;-71
2022/04/02 06:22:09;;;;;;;;;;;-0.60;99.90;;;;;;5027604;28;19921;-72
2022/04/02 06:24:35;;;;;;;;;;;-0.60;99.90;;;;;;5027895;28;19928;-71
2022/04/02 06:27:02;;;;;;;;;;;-0.60;99.90;;;;;;5027687;28;19951;-72
2022/04/02 06:29:29;;;;;;;;;;;-0.60;99.90;;;;;;5028181;28;20093;-71
2022/04/02 06:31:57;;;;;;;;;;;-0.60;99.90;;;;;;5027317;28;19933;-71
2022/04/02 06:34:24;;;;;;;;;;;-0.60;99.90;;;;;;5026423;28;20212;-73
2022/04/02 06:36:50;;;;;;;;;;;-0.60;99.90;;;;;;5026747;28;19926;-70
2022/04/02 06:39:19;;;;;;;;;;;-0.60;99.90;;;;;;5023704;28;19921;-71
2022/04/02 06:41:46;;;;;;;;;;;-0.60;99.90;;;;;;5027426;28;19921;-70
2022/04/02 06:44:13;;;;;;;;;;;-0.60;99.90;;;;;;5027028;28;20104;-70
2022/04/02 06:46:39;;;;;;;;;;;-0.60;99.90;;;;;;5026605;28;19925;-69
2022/04/02 06:49:09;;;;;;;;;;;-0.70;99.90;;;;;;5027143;28;19929;-71
2022/04/02 06:51:36;;;;;;;;;;;-0.60;99.90;;;;;;5027150;28;19921;-71
2022/04/02 06:54:12;;;;;;;;;;;-0.50;99.90;;;;;;5053270;22;19987;-96
2022/04/02 06:56:42;;;;;;;;;;;-0.60;99.90;;;;;;5095852;28;20262;-96
2022/04/02 06:59:10;;;;;;;;;;;0.10;99.90;;;;;;5092079;28;19920;-96
2022/04/02 07:01:38;;;;;;;;;;;-0.50;99.90;;;;;;5082183;28;19935;-96
2022/04/02 07:04:04;;;;;;;;;;;0.70;99.90;;;;;;5081079;22;19952;-70
2022/04/02 07:06:34;;;;;;;;;;;-0.50;99.90;;;;;;5045647;28;19933;-72
2022/04/02 07:09:09;;;;;;;;;;;-0.50;99.90;;;;;;5045425;28;19925;-72
2022/04/02 07:11:36;;;;;;;;;;;-0.50;99.90;;;;;;5046573;28;20111;-72
2022/04/02 07:14:07;;;;;;;;;;;-0.50;99.90;;;;;;5044085;28;19921;-72
2022/04/02 07:16:33;;;;;;;;;;;-0.70;99.90;;;;;;5045932;28;20123;-72
2022/04/02 07:19:19;;;;;;;;;;;-0.60;99.90;;;;;;5045570;28;19928;-72
2022/04/02 07:21:47;;;;;;;;;;;-0.60;99.90;;;;;;5045484;28;19929;-72
2022/04/02 07:24:17;;;;;;;;;;;-0.70;99.90;;;;;;5046017;28;20599;-72
2022/04/02 07:26:45;;;;;;;;;;;-0.60;99.90;;;;;;5045978;28;19921;-72
2022/04/02 07:29:12;;;;;;;;;;;-0.60;99.90;;;;;;5046551;28;19978;-74
2022/04/02 07:31:39;;;;;;;;;;;-0.50;99.90;;;;;;5046419;28;19928;-71
2022/04/02 07:34:06;;;;;;;;;;;-0.50;99.90;;;;;;5046111;28;19928;-71
2022/04/02 07:36:37;;;;;;;;;;;-0.40;99.90;;;;;;5036109;28;19933;-71
2022/04/02 07:39:11;;;;;;;;;;;-0.40;99.90;;;;;;5042232;28;19921;-71
2022/04/02 07:41:42;;;;;;;;;;;-0.50;99.90;;;;;;5046492;28;19921;-71
2022/04/02 07:44:16;;;;;;;;;;;-0.40;99.90;;;;;;5046515;28;19960;-72
2022/04/02 07:46:44;;;;;;;;;;;-0.50;99.90;;;;;;5045000;28;19925;-72
2022/04/02 07:49:12;;;;;;;;;;;-0.40;99.90;;;;;;5037707;28;19980;-72
2022/04/02 07:51:41;;;;;;;;;;;-0.40;99.90;;;;;;5036499;28;20147;-74
2022/04/02 07:54:10;;;;;;;;;;;-0.40;99.90;;;;;;5025958;28;19921;-74
2022/04/02 07:56:37;;;;;;;;;;;-0.40;99.90;;;;;;5025051;28;19928;-76
2022/04/02 07:59:06;;;;;;;;;;;-0.40;99.90;;;;;;5025455;28;19921;-74
2022/04/02 08:01:40;;;;;;;;;;;-0.40;99.90;;;;;;5032641;28;19921;-74
2022/04/02 08:04:07;;;;;;;;;;;-0.40;99.90;;;;;;5026753;28;19928;-74
2022/04/02 08:06:34;;;;;;;;;;;-0.30;99.90;;;;;;5032444;28;19922;-74
2022/04/02 08:09:01;;;;;;;;;;;-0.30;99.90;;;;;;5044606;28;19928;-74
2022/04/02 08:11:30;;;;;;;;;;;-0.20;99.90;;;;;;5045433;28;20085;-74
2022/04/02 08:13:58;;;;;;;;;;;-0.20;99.90;;;;;;5042958;28;19921;-73
2022/04/02 08:16:34;;;;;;;;;;;-0.20;99.90;;;;;;5043864;28;19932;-73
2022/04/02 08:19:02;;;;;;;;;;;-0.20;99.90;;;;;;5045377;28;19921;-74
2022/04/02 08:21:29;;;;;;;;;;;-0.40;99.90;;;;;;5044932;28;19921;-74
2022/04/02 08:23:56;;;;;;;;;;;-0.40;99.90;;;;;;5045119;28;19928;-72
2022/04/02 08:26:28;;;;;;;;;;;-0.50;99.90;;;;;;5044654;28;20205;-72
2022/04/02 08:29:11;;;;;;;;;;;-0.50;99.90;;;;;;5042571;28;19920;-72
2022/04/02 08:31:45;;;;;;;;;;;-0.50;99.90;;;;;;5045602;28;19921;-72
2022/04/02 08:34:16;;;;;;;;;;;-0.50;99.90;;;;;;5044931;28;19968;-73
2022/04/02 08:36:45;;;;;;;;;;;-0.60;99.90;;;;;;5045463;28;19921;-72
2022/04/02 08:39:21;;;;;;;;;;;-0.60;99.90;;;;;;5032838;28;19922;-72
2022/04/02 08:41:55;;;;;;;;;;;-0.50;99.90;;;;;;5042741;28;19927;-72
2022/04/02 08:44:40;;;;;;;;;;;-0.40;99.90;;;;;;5044367;28;20220;-72
2022/04/02 08:47:20;;;;;;;;;;;-0.30;99.90;;;;;;5044258;28;19928;-72
2022/04/02 08:49:52;;;;;;;;;;;-0.30;99.90;;;;;;5044765;28;20273;-71
2022/04/02 08:52:23;;;;;;;;;;;-0.30;99.90;;;;;;5044643;28;20262;-72
2022/04/02 08:55:08;;;;;;;;;;;-0.30;99.90;;;;;;5028148;28;19925;-72
2022/04/02 08:57:44;;;;;;;;;;;-0.20;99.90;;;;;;5044056;28;20111;-73
2022/04/02 09:00:11;;;;;;;;;;;-0.10;99.90;;;;;;5044005;28;19937;-71
2022/04/02 09:02:48;;;;;;;;;;;0.00;99.90;;;;;;5044622;28;19927;-71
2022/04/02 09:05:22;;;;;;;;;;;0.00;99.90;;;;;;5043705;28;19996;-74
2022/04/02 09:08:15;;;;;;;;;;;-0.10;99.90;;;;;;5045475;28;19921;-71
2022/04/02 09:11:05;;;;;;;;;;;-0.10;99.90;;;;;;5043806;28;20190;-71
2022/04/02 09:13:47;;;;;;;;;;;-0.10;99.90;;;;;;5044425;28;19940;-74
2022/04/02 09:16:20;;;;;;;;;;;-0.20;99.90;;;;;;5008072;28;19920;-71
2022/04/02 09:18:54;;;;;;;;;;;-0.20;99.90;;;;;;5043665;28;19932;-74
2022/04/02 09:21:31;;;;;;;;;;;-0.10;99.90;;;;;;5044136;28;19921;-74
2022/04/02 09:24:09;;;;;;;;;;;-0.10;99.90;;;;;;5043971;28;19921;-74
2022/04/02 09:27:02;;;;;;;;;;;-0.10;99.90;;;;;;5043290;28;20208;-74
2022/04/02 09:29:29;;;;;;;;;;;-0.20;99.90;;;;;;5044253;28;19925;-74
2022/04/02 09:32:19;;;;;;;;;;;-0.30;99.90;;;;;;5041825;28;19988;-72
2022/04/02 09:35:03;;;;;;;;;;;-0.20;99.90;;;;;;5039708;28;19922;-74
2022/04/02 09:37:39;;;;;;;;;;;-0.10;99.90;;;;;;5023974;28;19944;-71
2022/04/02 09:40:08;;;;;;;;;;;-0.20;99.90;;;;;;5034082;28;19921;-74
2022/04/02 09:42:37;;;;;;;;;;;-0.20;99.90;;;;;;5023864;28;19968;-74
2022/04/02 09:45:04;;;;;;;;;;;-0.20;99.90;;;;;;5029765;28;19968;-72
2022/04/02 09:47:46;;;;;;;;;;;-0.20;99.90;;;;;;5043114;28;19928;-71
2022/04/02 09:50:14;;;;;;;;;;;-0.30;99.90;;;;;;5044005;28;20075;-74
2022/04/02 09:52:45;;;;;;;;;;;-0.30;99.90;;;;;;5043808;28;19921;-74
2022/04/02 09:55:16;;;;;;;;;;;-0.30;99.90;;;;;;5039987;28;19921;-73
2022/04/02 09:58:13;;;;;;;;;;;-0.30;99.90;;;;;;5039827;28;19988;-72
2022/04/02 10:00:45;;;;;;;;;;;-0.20;99.90;;;;;;5043648;28;19927;-74
2022/04/02 10:03:13;;;;;;;;;;;-0.10;99.90;;;;;;5043465;28;20205;-71
2022/04/02 10:05:44;;;;;;;;;;;-0.10;99.90;;;;;;5043118;28;19968;-72
2022/04/02 10:08:18;;;;;;;;;;;-0.10;99.90;;;;;;5043577;28;19921;-70
2022/04/02 10:10:46;;;;;;;;;;;-0.10;99.90;;;;;;5043798;28;19921;-72
2022/04/02 10:13:14;;;;;;;;;;;0.10;99.90;;;;;;5043854;28;19927;-71
2022/04/02 10:15:42;;;;;;;;;;;0.10;99.90;;;;;;5042550;28;20213;-72
2022/04/02 10:18:11;;;;;;;;;;;0.10;99.90;;;;;;5043086;28;19925;-72
2022/04/02 10:20:38;;;;;;;;;;;0.00;99.90;;;;;;5043371;28;19928;-72
2022/04/02 10:23:12;;;;;;;;;;;0.00;99.90;;;;;;5043318;28;19921;-72
2022/04/02 10:25:46;;;;;;;;;;;0.00;99.90;;;;;;5042386;28;19965;-75
2022/04/02 10:28:14;;;;;;;;;;;0.00;99.90;;;;;;5034782;28;19922;-74
2022/04/02 10:30:57;;;;;;;;;;;0.10;99.90;;;;;;5033645;28;19936;-73
2022/04/02 10:33:28;;;;;;;;;;;0.10;99.90;;;;;;5043569;28;20097;-72
2022/04/02 10:35:55;;;;;;;;;;;0.10;99.90;;;;;;5042812;28;19988;-74
2022/04/02 10:38:32;;;;;;;;;;;0.20;99.90;;;;;;5043018;28;19921;-71
2022/04/02 10:41:04;;;;;;;;;;;0.20;99.90;;;;;;5023848;28;19960;-72
2022/04/02 10:43:31;;;;;;;;;;;0.20;99.90;;;;;;5023661;28;20090;-71
2022/04/02 10:45:59;;;;;;;;;;;0.10;99.90;;;;;;5041092;28;19953;-73
2022/04/02 10:48:28;;;;;;;;;;;0.00;99.90;;;;;;5042411;28;20200;-73
2022/04/02 10:50:55;;;;;;;;;;;0.10;99.90;;;;;;5028887;28;19944;-73
2022/04/02 10:53:22;;;;;;;;;;;0.10;99.90;;;;;;5023607;28;19922;-73
2022/04/02 10:56:01;;;;;;;;;;;0.10;99.90;;;;;;5031551;28;20118;-72
2022/04/02 10:58:36;;;;;;;;;;;0.20;99.90;;;;;;5046754;28;19921;-73
2022/04/02 11:01:05;;;;;;;;;;;0.30;99.90;;;;;;5046964;28;19927;-72
2022/04/02 11:03:37;;;;;;;;;;;0.20;99.90;;;;;;5044509;28;19996;-72
2022/04/02 11:06:03;;;;;;;;;;;0.30;99.90;;;;;;5045509;28;19928;-72
2022/04/02 11:08:31;;;;;;;;;;;0.30;99.90;;;;;;5046426;28;19921;-72
2022/04/02 11:10:58;;;;;;;;;;;0.30;99.90;;;;;;5046697;28;19921;-72
2022/04/02 11:13:32;;;;;;;;;;;0.30;99.90;;;;;;5046646;28;19921;-72
2022/04/02 11:15:59;;;;;;;;;;;0.30;99.90;;;;;;5034777;28;19925;-72
2022/04/02 11:18:25;;;;;;;;;;;0.30;99.90;;;;;;5037553;28;19927;-73
2022/04/02 11:20:59;;;;;;;;;;;0.30;99.90;;;;;;5045957;28;19921;-73
2022/04/02 11:23:35;;;;;;;;;;;0.40;99.90;;;;;;5046416;28;19921;-73
2022/04/02 11:26:03;;;;;;;;;;;0.50;99.90;;;;;;5045688;28;19928;-72
2022/04/02 11:28:37;;;;;;;;;;;0.50;99.90;;;;;;5044205;28;19936;-72
2022/04/02 11:31:06;;;;;;;;;;;0.50;99.90;;;;;;5042764;28;19936;-72
2022/04/02 11:33:34;;;;;;;;;;;0.60;99.90;;;;;;5046347;28;20117;-72
2022/04/02 11:36:03;;;;;;;;;;;0.60;99.90;;;;;;5045392;28;19921;-72
2022/04/02 11:38:38;;;;;;;;;;;0.40;99.90;;;;;;5046083;28;19921;-72
2022/04/02 11:41:12;;;;;;;;;;;0.40;99.90;;;;;;5045840;28;20230;-72
2022/04/02 11:43:40;;;;;;;;;;;0.40;99.90;;;;;;5046106;28;19921;-72
2022/04/02 11:46:09;;;;;;;;;;;0.50;99.90;;;;;;5044742;28;19921;-72
2022/04/02 11:48:36;;;;;;;;;;;0.60;99.90;;;;;;5045377;28;19921;-72
2022/04/02 11:51:11;;;;;;;;;;;0.70;99.90;;;;;;5045573;28;19921;-73
2022/04/02 11:53:38;;;;;;;;;;;0.70;99.90;;;;;;5025991;28;19947;-72
2022/04/02 11:56:22;;;;;;;;;;;0.80;99.90;;;;;;5038142;28;19925;-71
2022/04/02 11:58:50;;;;;;;;;;;0.70;99.90;;;;;;5045605;28;19928;-72
2022/04/02 12:01:19;;;;;;;;;;;0.80;99.90;;;;;;5045369;28;19921;-72
2022/04/02 12:03:46;;;;;;;;;;;0.90;99.90;;;;;;5044077;28;19925;-73
2022/04/02 12:06:12;;;;;;;;;;;0.90;99.90;;;;;;5043857;28;19921;-71
2022/04/02 12:08:40;;;;;;;;;;;1.00;99.90;;;;;;5045515;28;20224;-70
2022/04/02 12:11:10;;;;;;;;;;;1.00;99.90;;;;;;5045460;28;19960;-73
2022/04/02 12:13:55;;;;;;;;;;;1.00;99.90;;;;;;5042376;28;19929;-72
2022/04/02 12:16:23;;;;;;;;;;;0.90;99.90;;;;;;5044005;28;19928;-72
2022/04/02 12:18:54;;;;;;;;;;;0.90;99.90;;;;;;5045353;28;19984;-72
2022/04/02 12:21:31;;;;;;;;;;;1.00;99.90;;;;;;5043962;28;19921;-73
2022/04/02 12:24:00;;;;;;;;;;;1.00;99.90;;;;;;5044567;28;19929;-73
2022/04/02 12:26:27;;;;;;;;;;;0.90;99.90;;;;;;5043697;28;19921;-72
2022/04/02 12:28:57;;;;;;;;;;;0.90;99.90;;;;;;5044511;28;19928;-72
2022/04/02 12:31:23;;;;;;;;;;;0.80;99.90;;;;;;5042358;28;19948;-73
2022/04/02 12:33:51;;;;;;;;;;;0.90;99.90;;;;;;5044374;28;19921;-72
2022/04/02 12:36:18;;;;;;;;;;;0.90;99.90;;;;;;5043825;28;19944;-72
2022/04/02 12:38:48;;;;;;;;;;;1.00;99.90;;;;;;5043797;28;19921;-73
2022/04/02 12:41:19;;;;;;;;;;;1.00;99.90;;;;;;5044196;28;19921;-73
2022/04/02 12:43:48;;;;;;;;;;;1.10;99.90;;;;;;5043852;28;19928;-73
2022/04/02 12:46:23;;;;;;;;;;;1.10;99.90;;;;;;5043271;28;20263;-72
2022/04/02 12:48:49;;;;;;;;;;;1.10;99.90;;;;;;5044097;28;20220;-72
2022/04/02 12:51:17;;;;;;;;;;;1.00;99.90;;;;;;5044098;28;20148;-72
2022/04/02 12:53:44;;;;;;;;;;;1.10;99.90;;;;;;5043945;28;19928;-73
2022/04/02 12:56:11;;;;;;;;;;;1.20;99.90;;;;;;5079888;22;19920;-71
2022/04/02 12:58:39;;;;;;;;;;;1.20;99.90;;;;;;5069192;28;19943;-71
2022/04/02 13:01:12;;;;;;;;;;;1.30;99.90;;;;;;5081479;28;19961;-72
2022/04/02 13:03:45;;;;;;;;;;;1.40;99.90;;;;;;5080124;28;19932;-71
2022/04/02 13:06:19;;;;;;;;;;;1.40;99.90;;;;;;5074284;28;19924;-75
2022/04/02 13:08:54;;;;;;;;;;;1.30;99.90;;;;;;5078083;28;19929;-71
2022/04/02 13:11:31;;;;;;;;;;;1.30;99.90;;;;;;5064220;28;19964;-71
2022/04/02 13:14:03;;;;;;;;;;;1.20;99.90;;;;;;5079051;28;19927;-71
2022/04/02 13:16:35;;;;;;;;;;;1.10;99.90;;;;;;5063991;28;19927;-72
2022/04/02 13:21:50;;;;;;;;;;;1.10;99.90;;;;;;5071689;28;19987;-70
2022/04/02 13:24:24;;;;;;;;;;;1.10;99.90;;;;;;5084131;28;19936;-71
2022/04/02 13:26:56;;;;;;;;;;;1.20;99.90;;;;;;5071323;28;19920;-71
2022/04/02 13:29:33;;;;;;;;;;;1.30;99.90;;;;;;5078748;28;19963;-70
2022/04/02 13:32:05;;;;;;;;;;;1.40;99.90;;;;;;5073256;28;19920;-70
2022/04/02 13:34:39;;;;;;;;;;;1.50;99.90;;;;;;5083531;28;19928;-71
2022/04/02 13:37:14;;;;;;;;;;;1.50;99.90;;;;;;5078926;28;19920;-71
2022/04/02 13:39:42;;;;;;;;;;;1.60;99.90;;;;;;5073409;28;19927;-71
2022/04/02 13:42:11;;;;;;;;;;;1.60;99.90;;;;;;5063215;28;19921;-70
2022/04/02 13:44:43;;;;;;;;;;;1.70;99.90;;;;;;5070862;28;19924;-70
2022/04/02 13:47:10;;;;;;;;;;;1.70;99.90;;;;;;5078510;28;19924;-71
2022/04/02 13:49:43;;;;;;;;;;;1.80;99.90;;;;;;5066960;28;19967;-72
2022/04/02 13:52:12;;;;;;;;;;;1.80;99.90;;;;;;5080014;28;20204;-70
2022/04/02 13:54:42;;;;;;;;;;;1.90;99.90;;;;;;5065271;28;20208;-70
2022/04/02 13:57:12;;;;;;;;;;;2.00;99.90;;;;;;5082850;28;20112;-70
2022/04/02 13:59:45;;;;;;;;;;;2.00;99.90;;;;;;5067100;28;19979;-70
2022/04/02 14:02:13;;;;;;;;;;;1.90;99.90;;;;;;5064078;28;19934;-70
2022/04/02 14:04:44;;;;;;;;;;;1.90;99.90;;;;;;5065458;28;19928;-70
2022/04/02 14:07:14;;;;;;;;;;;1.80;99.90;;;;;;5067948;28;20168;-70
2022/04/02 14:09:43;;;;;;;;;;;1.70;99.90;;;;;;5073149;28;20144;-70
2022/04/02 14:12:10;;;;;;;;;;;1.60;99.90;;;;;;5070250;28;19927;-70
2022/04/02 14:14:44;;;;;;;;;;;1.60;99.90;;;;;;5071709;28;19983;-70
2022/04/02 14:17:11;;;;;;;;;;;1.50;99.90;;;;;;5066668;28;19936;-70
2022/04/02 14:19:46;;;;;;;;;;;1.50;99.90;;;;;;5074257;28;20253;-71
2022/04/02 14:22:14;;;;;;;;;;;1.50;99.90;;;;;;5072516;28;19925;-70
2022/04/02 14:24:44;;;;;;;;;;;1.50;99.90;;;;;;5073078;28;19920;-70
2022/04/02 14:27:20;;;;;;;;;;;1.50;99.90;;;;;;5071620;28;20115;-70
2022/04/02 14:29:57;;;;;;;;;;;1.50;99.90;;;;;;5076222;28;19921;-70
2022/04/02 14:32:34;;;;;;;;;;;1.60;99.90;;;;;;5071336;28;19924;-70
2022/04/02 14:35:19;;;;;;;;;;;1.50;99.90;;;;;;5074708;28;20123;-71
2022/04/02 14:38:12;;;;;;;;;;;1.50;99.90;;;;;;5073389;28;19925;-71
2022/04/02 14:40:44;;;;;;;;;;;1.50;99.90;;;;;;5066390;28;20220;-70
2022/04/02 14:43:32;;;;;;;;;;;1.40;99.90;;;;;;5065915;28;20238;-71